createdAt,value
2022-12-11T00:01:58.546Z,97.23
2022-12-11T00:04:26.274Z,98.04
2022-12-11T00:06:55.243Z,97.62
2022-12-11T00:09:22.933Z,98.99
2022-12-11T00:11:50.557Z,97.64
2022-12-11T00:14:18.230Z,97.99
2022-12-11T00:16:45.873Z,97.61
2022-12-11T00:19:13.495Z,97.96
2022-12-11T00:21:41.141Z,97.37
2022-12-11T00:24:10.411Z,97.43
2022-12-11T00:26:38.205Z,96.97
2022-12-11T00:29:08.236Z,96.78
2022-12-11T00:31:35.835Z,96.89
2022-12-11T00:34:03.414Z,97.26
2022-12-11T00:36:31.077Z,97.39
2022-12-11T00:38:59.795Z,97.00
2022-12-11T00:41:28.725Z,96.60
2022-12-11T00:43:56.389Z,97.59
2022-12-11T00:46:24.123Z,98.10
2022-12-11T00:48:51.806Z,97.62
2022-12-11T00:51:19.567Z,98.33
2022-12-11T00:53:47.202Z,97.61
2022-12-11T00:56:18.353Z,96.75
2022-12-11T00:58:47.656Z,97.41
2022-12-11T01:01:18.539Z,96.84
2022-12-11T01:03:46.636Z,97.33
2022-12-11T01:06:16.554Z,98.09
2022-12-11T01:08:45.071Z,99.00
2022-12-11T01:11:13.804Z,98.54
2022-12-11T01:13:42.257Z,99.01
2022-12-11T01:16:13.089Z,99.51
2022-12-11T01:18:40.849Z,99.00
2022-12-11T01:21:10.048Z,100.00
2022-12-11T01:23:38.336Z,99.74
2022-12-11T01:26:08.271Z,99.53
2022-12-11T01:28:36.097Z,98.32
2022-12-11T01:31:03.939Z,98.24
2022-12-11T01:33:32.853Z,98.77
2022-12-11T01:36:00.459Z,99.12
2022-12-11T01:38:27.986Z,99.33
2022-12-11T01:40:55.549Z,99.14
2022-12-11T01:43:23.129Z,99.65
2022-12-11T01:45:50.763Z,100.00
2022-12-11T01:48:22.166Z,100.00
2022-12-11T01:50:54.027Z,100.00
2022-12-11T01:53:25.334Z,99.12
2022-12-11T01:55:56.209Z,98.54
2022-12-11T01:58:28.248Z,97.73
2022-12-11T02:00:57.153Z,97.76
2022-12-11T02:03:24.836Z,98.14
2022-12-11T02:05:53.722Z,97.53
2022-12-11T02:08:22.213Z,97.37
2022-12-11T02:11:01.558Z,98.06
2022-12-11T02:13:35.805Z,97.24
2022-12-11T02:16:09.911Z,98.35
2022-12-11T02:18:43.099Z,98.21
2022-12-11T02:21:14.905Z,98.24
2022-12-11T02:23:59.858Z,98.43
2022-12-11T02:26:49.816Z,98.03
2022-12-11T02:29:23.786Z,98.21
2022-12-11T02:31:57.443Z,97.33
2022-12-11T02:34:33.244Z,97.28
2022-12-11T02:37:07.856Z,97.38
2022-12-11T02:39:40.044Z,97.94
2022-12-11T02:42:10.931Z,98.40
2022-12-11T02:44:42.395Z,97.53
2022-12-11T02:47:14.632Z,97.26
2022-12-11T02:49:45.381Z,97.27
2022-12-11T02:52:15.408Z,97.13
2022-12-11T02:54:45.621Z,98.03
2022-12-11T02:57:17.683Z,95.74
2022-12-11T02:59:47.431Z,96.07
2022-12-11T03:02:18.732Z,97.46
2022-12-11T03:04:47.914Z,96.39
2022-12-11T03:07:19.154Z,96.19
2022-12-11T03:09:48.636Z,95.86
2022-12-11T03:12:20.153Z,96.06
2022-12-11T03:14:49.938Z,96.38
2022-12-11T03:17:20.619Z,95.78
2022-12-11T03:19:54.133Z,95.48
2022-12-11T03:22:26.297Z,95.62
2022-12-11T03:25:01.370Z,95.46
2022-12-11T03:27:34.210Z,95.17
2022-12-11T03:30:07.449Z,95.53
2022-12-11T03:32:39.103Z,96.56
2022-12-11T03:35:13.143Z,95.83
2022-12-11T03:37:42.777Z,96.54
2022-12-11T03:40:17.767Z,97.46
2022-12-11T03:42:48.219Z,96.67
2022-12-11T03:45:18.811Z,96.69
2022-12-11T03:47:47.921Z,96.15
2022-12-11T03:50:18.167Z,95.62
2022-12-11T03:52:51.362Z,96.50
2022-12-11T03:55:20.262Z,96.78
2022-12-11T03:57:48.392Z,95.83
2022-12-11T04:00:20.806Z,97.89
2022-12-11T04:03:13.219Z,97.03
2022-12-11T04:05:42.395Z,97.56
2022-12-11T04:08:10.198Z,97.26
2022-12-11T04:10:37.926Z,96.90
2022-12-11T04:13:05.560Z,97.26
2022-12-11T04:15:33.578Z,96.92
2022-12-11T04:18:18.702Z,97.36
2022-12-11T04:21:04.101Z,96.81
2022-12-11T04:23:49.430Z,97.64
2022-12-11T04:26:18.958Z,96.92
2022-12-11T04:28:48.398Z,96.55
2022-12-11T04:31:19.330Z,95.74
2022-12-11T04:33:47.148Z,95.44
2022-12-11T04:36:15.390Z,96.07
2022-12-11T04:38:42.983Z,95.85
2022-12-11T04:41:12.472Z,94.96
2022-12-11T04:43:40.619Z,96.51
2022-12-11T04:46:10.431Z,96.25
2022-12-11T04:48:40.668Z,96.68
2022-12-11T04:51:09.709Z,96.56
2022-12-11T04:53:37.672Z,96.23
2022-12-11T04:56:06.965Z,95.55
2022-12-11T04:58:35.805Z,95.50
2022-12-11T05:01:08.262Z,93.45
2022-12-11T05:03:35.995Z,94.55
2022-12-11T05:06:05.725Z,94.87
2022-12-11T05:08:36.791Z,95.75
2022-12-11T05:11:06.695Z,95.93
2022-12-11T05:13:34.857Z,96.60
2022-12-11T05:16:04.828Z,97.21
2022-12-11T05:18:32.482Z,97.16
2022-12-11T05:21:02.404Z,96.04
2022-12-11T05:23:31.691Z,96.40
2022-12-11T05:26:01.697Z,97.30
2022-12-11T05:28:32.041Z,96.13
2022-12-11T05:31:01.662Z,96.37
2022-12-11T05:33:30.390Z,96.61
2022-12-11T05:35:57.969Z,96.34
2022-12-11T05:38:25.685Z,94.93
2022-12-11T05:40:59.273Z,95.79
2022-12-11T05:43:28.579Z,96.44
2022-12-11T05:45:57.234Z,95.52
2022-12-11T05:48:24.862Z,96.29
2022-12-11T05:50:59.139Z,95.29
2022-12-11T05:53:27.289Z,97.07
2022-12-11T05:55:55.064Z,96.19
2022-12-11T05:58:24.100Z,95.48
2022-12-11T06:00:51.694Z,95.49
2022-12-11T06:03:19.372Z,95.65
2022-12-11T06:05:47.017Z,93.38
2022-12-11T06:08:14.657Z,93.90
2022-12-11T06:10:46.266Z,94.75
2022-12-11T06:13:14.234Z,94.03
2022-12-11T06:15:43.876Z,94.33
2022-12-11T06:18:11.599Z,94.39
2022-12-11T06:20:39.435Z,93.79
2022-12-11T06:23:07.063Z,93.70
2022-12-11T06:25:35.242Z,92.97
2022-12-11T06:28:02.916Z,94.24
2022-12-11T06:30:38.316Z,94.33
2022-12-11T06:33:08.400Z,94.60
2022-12-11T06:35:41.663Z,95.33
2022-12-11T06:38:10.495Z,94.77
2022-12-11T06:40:38.202Z,95.49
2022-12-11T06:43:06.184Z,94.65
2022-12-11T06:45:33.866Z,96.02
2022-12-11T06:48:01.483Z,95.33
2022-12-11T06:50:30.392Z,93.79
2022-12-11T06:52:58.102Z,95.50
2022-12-11T06:55:25.707Z,95.49
2022-12-11T06:57:53.223Z,95.73
2022-12-11T07:00:21.129Z,95.15
2022-12-11T07:02:48.726Z,95.08
2022-12-11T07:05:16.369Z,95.68
2022-12-11T07:07:45.349Z,95.79
2022-12-11T07:10:13.021Z,95.97
2022-12-11T07:12:40.730Z,95.96
2022-12-11T07:15:09.536Z,96.46
2022-12-11T07:17:37.362Z,100.00
2022-12-11T07:20:05.802Z,100.00
2022-12-11T07:22:33.355Z,100.00
2022-12-11T07:25:02.474Z,98.47
2022-12-11T07:27:30.216Z,95.75
2022-12-11T07:29:57.772Z,95.48
2022-12-11T07:32:25.469Z,95.59
2022-12-11T07:34:53.099Z,94.93
2022-12-11T07:37:20.669Z,94.12
2022-12-11T07:39:48.885Z,93.55
2022-12-11T07:42:17.919Z,92.89
2022-12-11T07:44:45.473Z,93.37
2022-12-11T07:47:13.037Z,92.17
2022-12-11T07:49:40.628Z,92.92
2022-12-11T07:52:08.185Z,92.56
2022-12-11T07:54:35.708Z,93.47
2022-12-11T07:57:03.297Z,93.36
2022-12-11T07:59:32.286Z,91.98
2022-12-11T08:02:02.113Z,92.74
2022-12-11T08:04:29.728Z,93.88
2022-12-11T08:06:58.671Z,93.26
2022-12-11T08:09:26.202Z,94.47
2022-12-11T08:11:53.789Z,94.06
2022-12-11T08:14:21.613Z,93.65
2022-12-11T08:16:50.630Z,92.90
2022-12-11T08:19:18.549Z,98.30
2022-12-11T08:21:46.714Z,95.52
2022-12-11T08:24:20.505Z,92.29
2022-12-11T08:26:48.592Z,91.89
2022-12-11T08:29:16.297Z,100.00
2022-12-11T08:31:43.890Z,100.00
2022-12-11T08:34:15.507Z,89.32
2022-12-11T08:36:44.204Z,86.80
2022-12-11T08:39:11.761Z,85.99
2022-12-11T08:41:39.516Z,85.42
2022-12-11T08:44:16.313Z,83.74
2022-12-11T08:46:44.651Z,83.22
2022-12-11T08:49:13.888Z,83.83
2022-12-11T08:51:41.469Z,83.79
2022-12-11T08:54:10.829Z,83.86
2022-12-11T08:56:38.407Z,83.92
2022-12-11T08:59:06.187Z,84.55
2022-12-11T09:01:33.768Z,84.56
2022-12-11T09:04:01.619Z,83.54
2022-12-11T09:06:31.470Z,82.59
2022-12-11T09:09:01.817Z,82.42
2022-12-11T09:11:31.600Z,82.78
2022-12-11T09:14:05.152Z,82.04
2022-12-11T09:16:37.532Z,82.85
2022-12-11T09:19:05.150Z,81.95
2022-12-11T09:21:34.313Z,81.81
2022-12-11T09:24:02.521Z,82.01
2022-12-11T09:26:31.624Z,81.41
2022-12-11T09:28:59.977Z,80.85
2022-12-11T09:31:29.598Z,84.32
2022-12-11T09:33:59.626Z,85.63
2022-12-11T09:36:27.828Z,82.14
2022-12-11T09:38:56.899Z,78.11
2022-12-11T09:41:35.942Z,79.57
2022-12-11T09:44:14.906Z,80.20
2022-12-11T09:46:43.905Z,78.94
2022-12-11T09:49:23.598Z,78.28
2022-12-11T09:51:57.332Z,75.72
2022-12-11T09:54:26.668Z,76.20
2022-12-11T09:57:02.413Z,73.71
2022-12-11T09:59:37.983Z,72.27
2022-12-11T10:02:27.005Z,71.12
2022-12-11T10:05:05.247Z,70.70
2022-12-11T10:07:38.982Z,70.91
2022-12-11T10:10:17.684Z,82.90
2022-12-11T10:12:54.432Z,82.10
2022-12-11T10:15:36.793Z,76.04
2022-12-11T10:18:07.042Z,74.16
2022-12-11T10:20:40.326Z,74.40
2022-12-11T10:23:09.436Z,67.45
2022-12-11T10:25:42.071Z,70.14
2022-12-11T10:28:12.373Z,68.79
2022-12-11T10:30:45.204Z,71.90
2022-12-11T10:33:19.335Z,69.44
2022-12-11T10:35:51.138Z,72.08
2022-12-11T10:38:27.394Z,70.48
2022-12-11T10:40:59.457Z,69.14
2022-12-11T10:43:35.097Z,67.23
2022-12-11T10:46:02.870Z,68.61
2022-12-11T10:48:30.504Z,67.42
2022-12-11T10:51:01.793Z,68.12
2022-12-11T10:53:30.101Z,66.32
2022-12-11T10:56:00.127Z,64.94
2022-12-11T10:58:31.812Z,65.44
2022-12-11T11:01:11.862Z,68.29
2022-12-11T11:03:55.108Z,69.59
2022-12-11T11:06:23.913Z,68.66
2022-12-11T11:08:53.310Z,69.29
2022-12-11T11:11:33.898Z,70.97
2022-12-11T11:14:16.343Z,82.04
2022-12-11T11:16:45.812Z,76.80
2022-12-11T11:19:21.258Z,73.83
2022-12-11T11:21:51.976Z,67.97
2022-12-11T11:24:28.001Z,67.60
2022-12-11T11:27:12.676Z,68.49
2022-12-11T11:29:42.456Z,67.52
2022-12-11T11:32:18.802Z,68.23
2022-12-11T11:34:46.406Z,68.62
2022-12-11T11:37:25.095Z,69.75
2022-12-11T11:39:57.461Z,70.87
2022-12-11T11:42:38.046Z,73.81
2022-12-11T11:45:13.522Z,74.29
2022-12-11T11:47:50.629Z,74.15
2022-12-11T11:50:24.043Z,75.00
2022-12-11T11:52:58.788Z,76.67
2022-12-11T11:55:39.451Z,75.95
2022-12-11T11:58:15.137Z,76.12
2022-12-11T12:00:43.533Z,77.57
2022-12-11T12:03:14.500Z,77.38
2022-12-11T12:05:50.836Z,77.53
2022-12-11T12:08:30.458Z,75.78
2022-12-11T12:11:04.508Z,76.05
2022-12-11T12:13:49.637Z,76.50
2022-12-11T12:16:52.365Z,76.47
2022-12-11T12:19:35.410Z,76.79
2022-12-11T12:22:16.290Z,76.68
2022-12-11T12:24:52.640Z,76.44
2022-12-11T12:27:51.008Z,75.60
2022-12-11T12:30:22.507Z,75.11
2022-12-11T12:33:07.270Z,76.14
2022-12-11T12:35:37.103Z,77.11
2022-12-11T12:38:15.857Z,77.37
2022-12-11T12:40:56.592Z,77.28
2022-12-11T12:43:45.485Z,77.31
2022-12-11T12:46:24.521Z,76.25
2022-12-11T12:48:53.517Z,76.11
2022-12-11T12:51:21.997Z,75.44
2022-12-11T12:53:58.291Z,75.15
2022-12-11T12:56:26.943Z,74.28
2022-12-11T12:58:54.479Z,74.83
2022-12-11T13:01:26.429Z,72.60
2022-12-11T13:03:57.423Z,73.11
2022-12-11T13:06:37.752Z,73.41
2022-12-11T13:09:15.801Z,75.42
2022-12-11T13:11:44.058Z,73.42
2022-12-11T13:14:28.442Z,73.40
2022-12-11T13:17:23.346Z,74.23
2022-12-11T13:19:57.436Z,73.17
2022-12-11T13:22:25.962Z,73.80
2022-12-11T13:25:01.680Z,74.55
2022-12-11T13:27:38.541Z,74.01
2022-12-11T13:30:09.059Z,75.46
2022-12-11T13:32:38.046Z,75.01
2022-12-11T13:35:07.544Z,75.50
2022-12-11T13:37:39.526Z,75.21
2022-12-11T13:40:10.721Z,75.25
2022-12-11T13:42:45.294Z,76.05
2022-12-11T13:45:20.317Z,76.32
2022-12-11T13:47:49.549Z,74.33
2022-12-11T13:50:21.744Z,80.71
2022-12-11T13:52:56.394Z,77.01
2022-12-11T13:55:26.486Z,77.25
2022-12-11T13:57:54.018Z,75.74
2022-12-11T14:00:25.165Z,74.49
2022-12-11T14:02:56.607Z,74.58
2022-12-11T14:05:25.013Z,73.93
2022-12-11T14:07:55.682Z,74.76
2022-12-11T14:10:25.730Z,75.16
2022-12-11T14:12:58.097Z,91.00
2022-12-11T14:15:27.074Z,75.22
2022-12-11T14:17:57.527Z,74.67
2022-12-11T14:20:28.101Z,71.78
2022-12-11T14:23:18.018Z,74.03
2022-12-11T14:25:53.441Z,73.36
2022-12-11T14:28:22.536Z,74.67
2022-12-11T14:30:52.720Z,75.49
2022-12-11T14:33:24.037Z,76.60
2022-12-11T14:35:55.721Z,76.31
2022-12-11T14:38:26.995Z,75.63
2022-12-11T14:40:59.432Z,76.98
2022-12-11T14:43:34.114Z,77.48
2022-12-11T14:46:08.728Z,78.79
2022-12-11T14:48:43.456Z,79.13
2022-12-11T14:51:15.568Z,79.84
2022-12-11T14:53:45.992Z,80.01
2022-12-11T14:56:19.379Z,81.00
2022-12-11T14:58:52.597Z,80.88
2022-12-11T15:01:24.572Z,81.35
2022-12-11T15:04:03.921Z,81.16
2022-12-11T15:06:34.322Z,81.70
2022-12-11T15:09:21.001Z,81.75
2022-12-11T15:11:51.446Z,82.24
2022-12-11T15:14:21.574Z,82.05
2022-12-11T15:16:53.961Z,82.50
2022-12-11T15:19:28.140Z,82.31
2022-12-11T15:21:57.523Z,82.23
2022-12-11T15:24:31.298Z,82.18
2022-12-11T15:27:00.965Z,95.52
2022-12-11T15:29:34.911Z,100.00
2022-12-11T15:32:14.888Z,97.15
2022-12-11T15:34:46.684Z,88.03
2022-12-11T15:37:25.638Z,87.39
2022-12-11T15:39:54.806Z,84.58
2022-12-11T15:42:27.806Z,84.15
2022-12-11T15:44:56.295Z,83.29
2022-12-11T15:47:26.354Z,82.73
2022-12-11T15:49:58.912Z,83.53
2022-12-11T15:52:26.615Z,83.23
2022-12-11T15:54:54.176Z,83.16
2022-12-11T15:57:24.731Z,83.93
2022-12-11T15:59:54.926Z,84.07
2022-12-11T16:02:24.217Z,83.03
2022-12-11T16:04:51.994Z,83.47
2022-12-11T16:07:23.070Z,83.36
2022-12-11T16:09:51.392Z,83.43
2022-12-11T16:12:19.437Z,83.19
2022-12-11T16:14:47.596Z,83.94
2022-12-11T16:17:16.804Z,84.02
2022-12-11T16:19:45.120Z,85.00
2022-12-11T16:22:14.047Z,85.91
2022-12-11T16:24:42.974Z,85.52
2022-12-11T16:27:10.630Z,85.62
2022-12-11T16:29:40.711Z,84.84
2022-12-11T16:32:09.391Z,85.18
2022-12-11T16:34:38.133Z,85.16
2022-12-11T16:37:06.494Z,84.55
2022-12-11T16:39:34.129Z,85.80
2022-12-11T16:42:03.057Z,85.19
2022-12-11T16:44:30.626Z,86.35
2022-12-11T16:46:58.823Z,86.22
2022-12-11T16:49:26.377Z,85.71
2022-12-11T16:51:53.927Z,86.44
2022-12-11T16:54:21.479Z,85.89
2022-12-11T16:56:49.083Z,85.34
2022-12-11T16:59:17.993Z,85.65
2022-12-11T17:01:46.540Z,85.02
2022-12-11T17:04:14.099Z,84.67
2022-12-11T17:06:41.696Z,85.85
2022-12-11T17:09:09.226Z,86.77
2022-12-11T17:11:36.792Z,87.11
2022-12-11T17:14:04.448Z,86.72
2022-12-11T17:16:33.994Z,89.99
2022-12-11T17:19:02.939Z,87.77
2022-12-11T17:21:30.495Z,87.00
2022-12-11T17:23:58.035Z,86.50
2022-12-11T17:26:27.959Z,87.06
2022-12-11T17:28:57.170Z,87.10
2022-12-11T17:31:24.974Z,86.55
2022-12-11T17:33:54.704Z,86.63
2022-12-11T17:36:23.319Z,87.48
2022-12-11T17:38:50.883Z,87.88
2022-12-11T17:41:20.758Z,87.53
2022-12-11T17:43:49.105Z,87.54
2022-12-11T17:46:16.896Z,88.12
2022-12-11T17:48:44.892Z,88.77
2022-12-11T17:51:20.942Z,89.01
2022-12-11T17:53:50.598Z,88.74
2022-12-11T17:56:18.468Z,88.84
2022-12-11T17:58:47.316Z,89.03
2022-12-11T18:01:17.959Z,89.13
2022-12-11T18:03:45.752Z,88.61
2022-12-11T18:06:17.647Z,89.35
2022-12-11T18:08:46.149Z,89.17
2022-12-11T18:11:16.559Z,88.93
2022-12-11T18:13:45.007Z,88.80
2022-12-11T18:16:16.741Z,89.27
2022-12-11T18:18:45.731Z,89.50
2022-12-11T18:21:15.932Z,89.76
2022-12-11T18:23:44.233Z,90.35
2022-12-11T18:26:14.308Z,90.26
2022-12-11T18:28:42.147Z,90.14
2022-12-11T18:31:10.039Z,90.23
2022-12-11T18:33:38.962Z,91.53
2022-12-11T18:36:07.831Z,91.49
2022-12-11T18:38:36.784Z,91.15
2022-12-11T18:41:05.235Z,92.15
2022-12-11T18:43:32.875Z,91.39
2022-12-11T18:46:06.350Z,91.75
2022-12-11T18:48:34.024Z,90.69
2022-12-11T18:51:02.033Z,90.74
2022-12-11T18:53:29.715Z,91.07
2022-12-11T18:56:00.607Z,92.63
2022-12-11T18:58:28.457Z,92.33
2022-12-11T19:00:56.105Z,92.45
2022-12-11T19:03:23.785Z,92.52
2022-12-11T19:05:51.413Z,93.11
2022-12-11T19:08:19.100Z,93.05
2022-12-11T19:10:47.961Z,93.06
2022-12-11T19:13:16.955Z,92.81
2022-12-11T19:15:45.122Z,94.00
2022-12-11T19:18:12.708Z,92.67
2022-12-11T19:20:56.714Z,93.33
2022-12-11T19:23:31.710Z,93.04
2022-12-11T19:25:59.256Z,93.50
2022-12-11T19:28:28.216Z,93.98
2022-12-11T19:30:55.862Z,93.35
2022-12-11T19:33:23.565Z,93.60
2022-12-11T19:36:00.644Z,94.54
2022-12-11T19:38:31.027Z,94.38
2022-12-11T19:40:58.645Z,93.05
2022-12-11T19:43:26.194Z,93.41
2022-12-11T19:45:55.124Z,94.25
2022-12-11T19:48:22.653Z,93.90
2022-12-11T19:50:50.181Z,94.46
2022-12-11T19:53:17.717Z,93.69
2022-12-11T19:55:50.537Z,94.69
2022-12-11T19:58:18.403Z,93.83
2022-12-11T20:00:46.185Z,93.77
2022-12-11T20:03:15.161Z,93.95
2022-12-11T20:05:43.015Z,93.58
2022-12-11T20:11:04.544Z,93.11
2022-12-11T20:13:32.535Z,92.83
2022-12-11T20:16:00.417Z,93.06
2022-12-11T20:18:29.731Z,92.56
2022-12-11T20:21:00.752Z,93.80
2022-12-11T20:23:28.988Z,93.83
2022-12-11T20:25:59.016Z,93.40
2022-12-11T20:28:27.443Z,94.79
2022-12-11T20:30:55.017Z,93.66
2022-12-11T20:33:22.579Z,94.32
2022-12-11T20:35:51.666Z,97.27
2022-12-11T20:38:20.837Z,95.25
2022-12-11T20:40:48.382Z,95.62
2022-12-11T20:43:15.888Z,95.57
2022-12-11T20:45:48.533Z,95.45
2022-12-11T20:48:16.489Z,94.53
2022-12-11T20:50:44.125Z,94.44
2022-12-11T20:53:12.987Z,94.41
2022-12-11T20:55:41.440Z,93.28
2022-12-11T20:58:09.811Z,93.22
2022-12-11T21:00:37.617Z,91.29
2022-12-11T21:03:06.086Z,91.62
2022-12-11T21:05:33.650Z,92.99
2022-12-11T21:08:01.239Z,93.41
2022-12-11T21:10:30.135Z,92.83
2022-12-11T21:12:57.663Z,92.04
2022-12-11T21:15:25.218Z,91.77
2022-12-11T21:17:52.831Z,92.88
2022-12-11T21:20:21.134Z,92.39
2022-12-11T21:22:48.689Z,92.77
2022-12-11T21:25:16.287Z,93.30
2022-12-11T21:27:45.158Z,92.63
2022-12-11T21:30:13.907Z,93.49
2022-12-11T21:32:42.026Z,93.54
2022-12-11T21:35:10.936Z,93.36
2022-12-11T21:37:41.750Z,93.16
2022-12-11T21:40:10.525Z,93.05
2022-12-11T21:42:38.051Z,93.42
2022-12-11T21:45:58.801Z,94.42
2022-12-11T21:47:55.835Z,94.30
2022-12-11T21:50:24.013Z,93.42
2022-12-11T21:52:51.610Z,93.18
2022-12-11T21:55:19.340Z,93.57
2022-12-11T21:57:47.050Z,93.20
2022-12-11T22:00:16.956Z,93.84
2022-12-11T22:02:44.526Z,93.69
2022-12-11T22:05:12.414Z,93.76
2022-12-11T22:07:40.187Z,93.18
2022-12-11T22:10:08.782Z,93.66
2022-12-11T22:12:36.343Z,92.41
2022-12-11T22:15:04.489Z,93.04
2022-12-11T22:17:33.351Z,93.57
2022-12-11T22:20:00.911Z,93.49
2022-12-11T22:22:28.398Z,93.24
2022-12-11T22:24:55.964Z,92.94
2022-12-11T22:27:24.145Z,93.12
2022-12-11T22:29:51.870Z,92.62
2022-12-11T22:32:19.393Z,92.87
2022-12-11T22:34:48.232Z,92.54
2022-12-11T22:37:16.018Z,92.50
2022-12-11T22:39:43.608Z,91.66
2022-12-11T22:42:11.186Z,91.34
2022-12-11T22:44:38.716Z,90.22
2022-12-11T22:47:06.368Z,90.34
2022-12-11T22:49:33.970Z,88.94
2022-12-11T22:52:02.862Z,88.81
2022-12-11T22:54:30.435Z,87.59
2022-12-11T22:56:59.031Z,87.14
2022-12-11T22:59:26.582Z,86.47
2022-12-11T23:01:54.233Z,87.50
2022-12-11T23:04:21.830Z,87.00
2022-12-11T23:06:49.369Z,86.70
2022-12-11T23:09:18.676Z,86.79
2022-12-11T23:11:46.383Z,87.00
2022-12-11T23:14:16.077Z,87.48
2022-12-11T23:16:44.522Z,87.50
2022-12-11T23:19:13.237Z,86.68
2022-12-11T23:21:41.340Z,88.07
2022-12-11T23:24:09.621Z,88.20
2022-12-11T23:26:39.283Z,87.99
2022-12-11T23:29:07.232Z,88.20
2022-12-11T23:31:35.515Z,87.02
2022-12-11T23:34:03.114Z,86.97
2022-12-11T23:36:31.058Z,87.48
2022-12-11T23:38:58.884Z,86.86
2022-12-11T23:41:26.740Z,86.97
2022-12-11T23:43:55.770Z,87.22
2022-12-11T23:46:25.415Z,88.29
2022-12-11T23:48:53.690Z,88.55
2022-12-11T23:51:34.547Z,88.73
2022-12-11T23:54:02.117Z,89.06
2022-12-11T23:56:30.640Z,89.19
2022-12-11T23:59:00.233Z,89.39
